Mathews, Louisiana
Current Conditions -  °F | °C
As of 3:47 PM on Friday 24 Oct 2014 (Local Time) from KHUM Reporting Station
Clear Clear  
Wind Chill: 77°   Ceiling: Unl
Heat Index: 78°   Visibility: 7mi
Dew Point: 43°   Wind: 10mph
Humidity: 29%   Direction: 20°NNE
Pressure: 30.04"   Gusts: NA
Location:  29.69°N, 90.55°W
Report Text: KHUM 242047Z 02009KT 7SM SKC 25/06 A3004 RMK ATIS GOLF VA RY36 MS
Loading
Personal Weather Stations






























Interactive Weather Map
Tropical Storm Tracking
New forecast layout! Learn more

10-Day Weather Forecast

Advertisements
Track Severe Weather on mobile